sensor_id;sensor_type;location;lat;lon;timestamp;temperature;humidity
64705;DHT22;51131;52.298;13.686;2023-02-15T00:01:23;16.90;53.00
64705;DHT22;51131;52.298;13.686;2023-02-15T00:03:50;17.00;53.00
64705;DHT22;51131;52.298;13.686;2023-02-15T00:06:17;17.00;52.70
64705;DHT22;51131;52.298;13.686;2023-02-15T00:08:44;16.90;52.80
64705;DHT22;51131;52.298;13.686;2023-02-15T00:11:12;17.00;52.90
64705;DHT22;51131;52.298;13.686;2023-02-15T00:13:39;16.90;52.90
64705;DHT22;51131;52.298;13.686;2023-02-15T00:16:10;16.90;52.90
64705;DHT22;51131;52.298;13.686;2023-02-15T00:18:37;16.90;52.90
64705;DHT22;51131;52.298;13.686;2023-02-15T00:21:08;16.90;53.10
64705;DHT22;51131;52.298;13.686;2023-02-15T00:23:36;16.90;52.70
64705;DHT22;51131;52.298;13.686;2023-02-15T00:26:06;16.90;53.00
64705;DHT22;51131;52.298;13.686;2023-02-15T00:28:33;16.90;53.10
64705;DHT22;51131;52.298;13.686;2023-02-15T00:31:07;16.90;52.90
64705;DHT22;51131;52.298;13.686;2023-02-15T00:33:35;17.00;52.30
64705;DHT22;51131;52.298;13.686;2023-02-15T00:36:04;17.00;52.20
64705;DHT22;51131;52.298;13.686;2023-02-15T00:38:31;17.10;52.10
64705;DHT22;51131;52.298;13.686;2023-02-15T00:40:58;17.10;51.90
64705;DHT22;51131;52.298;13.686;2023-02-15T00:43:26;17.10;52.00
64705;DHT22;51131;52.298;13.686;2023-02-15T00:45:53;17.20;52.00
64705;DHT22;51131;52.298;13.686;2023-02-15T00:48:20;17.10;52.00
64705;DHT22;51131;52.298;13.686;2023-02-15T00:50:54;17.10;52.20
64705;DHT22;51131;52.298;13.686;2023-02-15T00:53:21;17.00;52.10
64705;DHT22;51131;52.298;13.686;2023-02-15T00:55:47;17.10;52.30
64705;DHT22;51131;52.298;13.686;2023-02-15T00:58:14;17.50;52.80
64705;DHT22;51131;52.298;13.686;2023-02-15T01:00:42;17.10;52.20
64705;DHT22;51131;52.298;13.686;2023-02-15T01:03:09;17.10;52.20
64705;DHT22;51131;52.298;13.686;2023-02-15T01:05:36;17.10;52.40
64705;DHT22;51131;52.298;13.686;2023-02-15T01:08:02;17.00;52.20
64705;DHT22;51131;52.298;13.686;2023-02-15T01:10:29;17.10;52.50
64705;DHT22;51131;52.298;13.686;2023-02-15T01:12:56;17.00;52.50
64705;DHT22;51131;52.298;13.686;2023-02-15T01:15:23;17.00;52.40
64705;DHT22;51131;52.298;13.686;2023-02-15T01:17:49;17.00;52.30
64705;DHT22;51131;52.298;13.686;2023-02-15T01:20:19;17.70;53.10
64705;DHT22;51131;52.298;13.686;2023-02-15T01:22:46;17.20;52.60
64705;DHT22;51131;52.298;13.686;2023-02-15T01:25:16;17.00;52.50
64705;DHT22;51131;52.298;13.686;2023-02-15T01:27:43;17.00;52.40
64705;DHT22;51131;52.298;13.686;2023-02-15T01:30:10;17.00;52.40
64705;DHT22;51131;52.298;13.686;2023-02-15T01:32:37;17.00;52.30
64705;DHT22;51131;52.298;13.686;2023-02-15T01:35:04;17.00;52.30
64705;DHT22;51131;52.298;13.686;2023-02-15T01:37:31;17.00;52.40
64705;DHT22;51131;52.298;13.686;2023-02-15T01:39:58;17.00;52.20
64705;DHT22;51131;52.298;13.686;2023-02-15T01:42:27;17.30;52.70
64705;DHT22;51131;52.298;13.686;2023-02-15T01:44:55;17.00;52.30
64705;DHT22;51131;52.298;13.686;2023-02-15T01:49:57;17.00;52.50
64705;DHT22;51131;52.298;13.686;2023-02-15T01:52:24;16.90;52.30
64705;DHT22;51131;52.298;13.686;2023-02-15T01:54:51;16.90;52.30
64705;DHT22;51131;52.298;13.686;2023-02-15T01:57:19;16.90;52.30
64705;DHT22;51131;52.298;13.686;2023-02-15T01:59:49;17.30;52.30
64705;DHT22;51131;52.298;13.686;2023-02-15T02:02:17;16.90;52.30
64705;DHT22;51131;52.298;13.686;2023-02-15T02:04:48;16.90;52.40
64705;DHT22;51131;52.298;13.686;2023-02-15T02:07:18;16.90;52.10
64705;DHT22;51131;52.298;13.686;2023-02-15T02:09:45;16.90;52.00
64705;DHT22;51131;52.298;13.686;2023-02-15T02:12:12;16.90;52.10
64705;DHT22;51131;52.298;13.686;2023-02-15T02:14:39;16.90;52.20
64705;DHT22;51131;52.298;13.686;2023-02-15T02:17:12;16.90;52.00
64705;DHT22;51131;52.298;13.686;2023-02-15T02:19:52;16.90;51.90
64705;DHT22;51131;52.298;13.686;2023-02-15T02:27:49;16.90;51.90
64705;DHT22;51131;52.298;13.686;2023-02-15T02:30:34;16.90;51.90
64705;DHT22;51131;52.298;13.686;2023-02-15T02:33:07;16.90;51.70
64705;DHT22;51131;52.298;13.686;2023-02-15T02:35:48;16.90;51.60
64705;DHT22;51131;52.298;13.686;2023-02-15T02:41:40;16.90;51.80
64705;DHT22;51131;52.298;13.686;2023-02-15T02:46:51;16.90;51.70
64705;DHT22;51131;52.298;13.686;2023-02-15T02:49:31;16.90;51.50
64705;DHT22;51131;52.298;13.686;2023-02-15T02:52:02;16.90;51.10
64705;DHT22;51131;52.298;13.686;2023-02-15T02:54:29;16.90;50.90
64705;DHT22;51131;52.298;13.686;2023-02-15T02:56:56;17.00;50.70
64705;DHT22;51131;52.298;13.686;2023-02-15T02:59:27;17.00;50.30
64705;DHT22;51131;52.298;13.686;2023-02-15T03:01:56;17.00;50.30
64705;DHT22;51131;52.298;13.686;2023-02-15T03:04:28;17.00;50.60
64705;DHT22;51131;52.298;13.686;2023-02-15T03:06:58;17.00;50.70
64705;DHT22;51131;52.298;13.686;2023-02-15T03:09:30;17.00;50.80
64705;DHT22;51131;52.298;13.686;2023-02-15T03:12:00;17.00;50.90
64705;DHT22;51131;52.298;13.686;2023-02-15T03:14:29;17.00;51.10
64705;DHT22;51131;52.298;13.686;2023-02-15T03:16:56;17.00;51.20
64705;DHT22;51131;52.298;13.686;2023-02-15T03:19:26;17.00;51.10
64705;DHT22;51131;52.298;13.686;2023-02-15T03:22:04;17.00;51.10
64705;DHT22;51131;52.298;13.686;2023-02-15T03:24:36;16.90;50.80
64705;DHT22;51131;52.298;13.686;2023-02-15T03:27:04;16.90;50.80
64705;DHT22;51131;52.298;13.686;2023-02-15T03:29:33;16.90;50.70
64705;DHT22;51131;52.298;13.686;2023-02-15T03:32:01;16.90;50.70
64705;DHT22;51131;52.298;13.686;2023-02-15T03:34:29;16.90;50.70
64705;DHT22;51131;52.298;13.686;2023-02-15T03:36:58;16.90;50.70
64705;DHT22;51131;52.298;13.686;2023-02-15T03:39:36;16.90;50.60
64705;DHT22;51131;52.298;13.686;2023-02-15T03:44:32;16.90;50.70
64705;DHT22;51131;52.298;13.686;2023-02-15T03:47:06;16.90;50.40
64705;DHT22;51131;52.298;13.686;2023-02-15T03:49:37;16.80;50.50
64705;DHT22;51131;52.298;13.686;2023-02-15T03:52:05;16.80;50.30
64705;DHT22;51131;52.298;13.686;2023-02-15T03:54:33;16.80;50.30
64705;DHT22;51131;52.298;13.686;2023-02-15T03:57:21;16.90;50.60
64705;DHT22;51131;52.298;13.686;2023-02-15T04:05:43;16.80;50.50
64705;DHT22;51131;52.298;13.686;2023-02-15T04:08:10;16.80;50.60
64705;DHT22;51131;52.298;13.686;2023-02-15T04:10:37;16.80;50.20
64705;DHT22;51131;52.298;13.686;2023-02-15T04:13:19;16.80;50.40
64705;DHT22;51131;52.298;13.686;2023-02-15T04:15:46;17.00;50.50
64705;DHT22;51131;52.298;13.686;2023-02-15T04:18:42;16.80;50.30
64705;DHT22;51131;52.298;13.686;2023-02-15T04:21:28;16.80;50.30
64705;DHT22;51131;52.298;13.686;2023-02-15T04:24:13;16.80;50.20
64705;DHT22;51131;52.298;13.686;2023-02-15T04:26:59;16.80;50.30
64705;DHT22;51131;52.298;13.686;2023-02-15T04:29:26;16.80;50.00
64705;DHT22;51131;52.298;13.686;2023-02-15T04:31:54;16.80;50.20
64705;DHT22;51131;52.298;13.686;2023-02-15T04:34:21;16.80;50.30
64705;DHT22;51131;52.298;13.686;2023-02-15T04:36:48;16.80;50.10
64705;DHT22;51131;52.298;13.686;2023-02-15T04:39:15;16.80;50.10
64705;DHT22;51131;52.298;13.686;2023-02-15T04:41:41;16.80;50.20
64705;DHT22;51131;52.298;13.686;2023-02-15T04:44:08;16.80;50.20
64705;DHT22;51131;52.298;13.686;2023-02-15T04:46:35;16.80;49.90
64705;DHT22;51131;52.298;13.686;2023-02-15T04:49:02;16.80;50.00
64705;DHT22;51131;52.298;13.686;2023-02-15T04:51:29;16.80;50.20
64705;DHT22;51131;52.298;13.686;2023-02-15T04:53:55;16.80;50.20
64705;DHT22;51131;52.298;13.686;2023-02-15T04:56:23;16.80;50.10
64705;DHT22;51131;52.298;13.686;2023-02-15T04:58:49;16.80;50.00
64705;DHT22;51131;52.298;13.686;2023-02-15T05:01:16;16.70;49.70
64705;DHT22;51131;52.298;13.686;2023-02-15T05:03:43;16.70;49.40
64705;DHT22;51131;52.298;13.686;2023-02-15T05:06:10;16.70;49.00
64705;DHT22;51131;52.298;13.686;2023-02-15T05:08:36;16.70;49.00
64705;DHT22;51131;52.298;13.686;2023-02-15T05:11:03;16.80;49.10
64705;DHT22;51131;52.298;13.686;2023-02-15T05:13:29;16.80;49.30
64705;DHT22;51131;52.298;13.686;2023-02-15T05:15:56;16.80;48.70
64705;DHT22;51131;52.298;13.686;2023-02-15T05:18:22;16.50;48.20
64705;DHT22;51131;52.298;13.686;2023-02-15T05:20:49;16.80;48.70
64705;DHT22;51131;52.298;13.686;2023-02-15T05:23:16;16.80;49.40
64705;DHT22;51131;52.298;13.686;2023-02-15T05:25:46;16.80;49.60
64705;DHT22;51131;52.298;13.686;2023-02-15T05:28:32;16.80;49.60
64705;DHT22;51131;52.298;13.686;2023-02-15T05:33:31;16.80;49.30
64705;DHT22;51131;52.298;13.686;2023-02-15T05:35:58;16.80;49.30
64705;DHT22;51131;52.298;13.686;2023-02-15T05:38:27;16.80;49.50
64705;DHT22;51131;52.298;13.686;2023-02-15T05:40:54;16.70;48.80
64705;DHT22;51131;52.298;13.686;2023-02-15T05:43:21;16.80;49.10
64705;DHT22;51131;52.298;13.686;2023-02-15T05:45:48;16.80;49.10
64705;DHT22;51131;52.298;13.686;2023-02-15T05:48:15;16.80;48.20
64705;DHT22;51131;52.298;13.686;2023-02-15T05:50:42;16.80;48.40
64705;DHT22;51131;52.298;13.686;2023-02-15T05:53:09;16.70;48.20
64705;DHT22;51131;52.298;13.686;2023-02-15T05:55:39;16.70;47.90
64705;DHT22;51131;52.298;13.686;2023-02-15T05:58:05;16.70;47.60
64705;DHT22;51131;52.298;13.686;2023-02-15T06:00:32;16.70;48.10
64705;DHT22;51131;52.298;13.686;2023-02-15T06:02:59;16.70;47.70
64705;DHT22;51131;52.298;13.686;2023-02-15T06:05:26;16.70;47.00
64705;DHT22;51131;52.298;13.686;2023-02-15T06:07:52;16.70;47.20
64705;DHT22;51131;52.298;13.686;2023-02-15T06:10:19;16.70;47.00
64705;DHT22;51131;52.298;13.686;2023-02-15T06:12:45;16.70;46.80
64705;DHT22;51131;52.298;13.686;2023-02-15T06:15:12;16.60;47.10
64705;DHT22;51131;52.298;13.686;2023-02-15T06:17:41;16.60;47.10
64705;DHT22;51131;52.298;13.686;2023-02-15T06:20:07;16.60;47.40
64705;DHT22;51131;52.298;13.686;2023-02-15T06:22:34;16.70;47.00
64705;DHT22;51131;52.298;13.686;2023-02-15T06:25:01;16.70;46.90
64705;DHT22;51131;52.298;13.686;2023-02-15T06:27:28;16.60;47.40
64705;DHT22;51131;52.298;13.686;2023-02-15T06:29:54;16.70;46.80
64705;DHT22;51131;52.298;13.686;2023-02-15T06:32:21;16.60;46.80
64705;DHT22;51131;52.298;13.686;2023-02-15T06:34:48;16.70;47.00
64705;DHT22;51131;52.298;13.686;2023-02-15T06:37:14;16.70;47.30
64705;DHT22;51131;52.298;13.686;2023-02-15T06:39:41;16.70;47.30
64705;DHT22;51131;52.298;13.686;2023-02-15T06:42:08;16.80;47.70
64705;DHT22;51131;52.298;13.686;2023-02-15T06:44:35;16.80;47.80
64705;DHT22;51131;52.298;13.686;2023-02-15T06:47:01;16.80;47.80
64705;DHT22;51131;52.298;13.686;2023-02-15T06:49:28;16.80;47.40
64705;DHT22;51131;52.298;13.686;2023-02-15T06:51:55;16.80;47.30
64705;DHT22;51131;52.298;13.686;2023-02-15T06:54:21;16.80;47.80
64705;DHT22;51131;52.298;13.686;2023-02-15T06:56:48;16.80;47.80
64705;DHT22;51131;52.298;13.686;2023-02-15T06:59:14;16.80;48.00
64705;DHT22;51131;52.298;13.686;2023-02-15T07:01:41;16.80;48.00
64705;DHT22;51131;52.298;13.686;2023-02-15T07:04:08;16.80;48.00
64705;DHT22;51131;52.298;13.686;2023-02-15T07:06:34;16.80;48.50
64705;DHT22;51131;52.298;13.686;2023-02-15T07:09:01;16.80;48.40
64705;DHT22;51131;52.298;13.686;2023-02-15T07:11:28;16.80;48.10
64705;DHT22;51131;52.298;13.686;2023-02-15T07:14:18;16.60;48.20
64705;DHT22;51131;52.298;13.686;2023-02-15T07:16:44;16.70;48.40
64705;DHT22;51131;52.298;13.686;2023-02-15T07:19:11;16.70;48.20
64705;DHT22;51131;52.298;13.686;2023-02-15T07:21:38;16.70;48.30
64705;DHT22;51131;52.298;13.686;2023-02-15T07:24:04;16.70;48.40
64705;DHT22;51131;52.298;13.686;2023-02-15T07:26:31;16.70;48.30
64705;DHT22;51131;52.298;13.686;2023-02-15T07:28:58;16.70;48.60
64705;DHT22;51131;52.298;13.686;2023-02-15T07:31:25;16.70;48.20
64705;DHT22;51131;52.298;13.686;2023-02-15T07:33:51;16.70;48.20
64705;DHT22;51131;52.298;13.686;2023-02-15T07:36:19;16.70;49.10
64705;DHT22;51131;52.298;13.686;2023-02-15T07:38:46;16.60;48.60
64705;DHT22;51131;52.298;13.686;2023-02-15T07:41:13;16.70;48.70
64705;DHT22;51131;52.298;13.686;2023-02-15T07:43:41;16.70;48.40
64705;DHT22;51131;52.298;13.686;2023-02-15T07:46:09;16.70;48.70
64705;DHT22;51131;52.298;13.686;2023-02-15T07:48:36;16.50;48.10
64705;DHT22;51131;52.298;13.686;2023-02-15T07:51:03;16.70;48.40
64705;DHT22;51131;52.298;13.686;2023-02-15T07:53:30;16.70;48.70
64705;DHT22;51131;52.298;13.686;2023-02-15T07:56:04;16.70;48.80
64705;DHT22;51131;52.298;13.686;2023-02-15T07:58:30;16.70;48.40
64705;DHT22;51131;52.298;13.686;2023-02-15T08:01:17;16.70;48.70
64705;DHT22;51131;52.298;13.686;2023-02-15T08:03:44;16.70;48.70
64705;DHT22;51131;52.298;13.686;2023-02-15T08:06:10;16.60;48.30
64705;DHT22;51131;52.298;13.686;2023-02-15T08:08:40;16.70;48.60
64705;DHT22;51131;52.298;13.686;2023-02-15T08:11:23;16.70;48.60
64705;DHT22;51131;52.298;13.686;2023-02-15T08:16:32;16.70;48.50
64705;DHT22;51131;52.298;13.686;2023-02-15T08:19:00;16.70;48.50
64705;DHT22;51131;52.298;13.686;2023-02-15T08:21:27;16.70;48.10
64705;DHT22;51131;52.298;13.686;2023-02-15T08:23:56;16.70;47.80
64705;DHT22;51131;52.298;13.686;2023-02-15T08:26:23;16.70;47.80
64705;DHT22;51131;52.298;13.686;2023-02-15T08:28:51;16.70;47.70
64705;DHT22;51131;52.298;13.686;2023-02-15T08:31:17;16.80;47.80
64705;DHT22;51131;52.298;13.686;2023-02-15T08:33:45;16.80;47.70
64705;DHT22;51131;52.298;13.686;2023-02-15T08:36:13;16.90;47.80
64705;DHT22;51131;52.298;13.686;2023-02-15T08:38:40;17.00;47.70
64705;DHT22;51131;52.298;13.686;2023-02-15T08:43:36;16.90;47.40
64705;DHT22;51131;52.298;13.686;2023-02-15T08:46:03;17.00;47.60
64705;DHT22;51131;52.298;13.686;2023-02-15T08:48:29;17.00;47.60
64705;DHT22;51131;52.298;13.686;2023-02-15T08:50:56;17.00;47.50
64705;DHT22;51131;52.298;13.686;2023-02-15T08:53:23;17.10;47.80
64705;DHT22;51131;52.298;13.686;2023-02-15T08:55:56;17.00;47.60
64705;DHT22;51131;52.298;13.686;2023-02-15T08:58:23;16.90;48.00
64705;DHT22;51131;52.298;13.686;2023-02-15T09:00:50;16.90;48.50
64705;DHT22;51131;52.298;13.686;2023-02-15T09:03:17;16.90;48.50
64705;DHT22;51131;52.298;13.686;2023-02-15T09:05:43;16.90;48.10
64705;DHT22;51131;52.298;13.686;2023-02-15T09:08:10;16.80;49.00
64705;DHT22;51131;52.298;13.686;2023-02-15T09:10:36;16.80;48.40
64705;DHT22;51131;52.298;13.686;2023-02-15T09:13:03;16.80;48.30
64705;DHT22;51131;52.298;13.686;2023-02-15T09:15:30;16.80;48.40
64705;DHT22;51131;52.298;13.686;2023-02-15T09:17:57;16.80;48.40
64705;DHT22;51131;52.298;13.686;2023-02-15T09:20:27;16.80;48.50
64705;DHT22;51131;52.298;13.686;2023-02-15T09:22:55;16.80;48.60
64705;DHT22;51131;52.298;13.686;2023-02-15T09:25:25;16.80;48.70
64705;DHT22;51131;52.298;13.686;2023-02-15T09:27:52;16.80;48.90
64705;DHT22;51131;52.298;13.686;2023-02-15T09:30:18;16.80;48.80
64705;DHT22;51131;52.298;13.686;2023-02-15T09:32:46;16.70;48.50
64705;DHT22;51131;52.298;13.686;2023-02-15T09:35:13;16.70;48.90
64705;DHT22;51131;52.298;13.686;2023-02-15T09:37:39;16.70;48.80
64705;DHT22;51131;52.298;13.686;2023-02-15T09:40:06;16.70;48.70
64705;DHT22;51131;52.298;13.686;2023-02-15T09:47:40;16.70;49.00
64705;DHT22;51131;52.298;13.686;2023-02-15T10:11:08;16.60;49.40
64705;DHT22;51131;52.298;13.686;2023-02-15T10:14:01;16.60;49.50
64705;DHT22;51131;52.298;13.686;2023-02-15T10:22:14;16.60;49.40
64705;DHT22;51131;52.298;13.686;2023-02-15T10:27:17;16.60;49.60
64705;DHT22;51131;52.298;13.686;2023-02-15T10:30:02;16.70;49.50
64705;DHT22;51131;52.298;13.686;2023-02-15T10:32:32;16.70;49.50
64705;DHT22;51131;52.298;13.686;2023-02-15T10:46:03;16.90;49.00
64705;DHT22;51131;52.298;13.686;2023-02-15T10:51:11;17.00;48.90
64705;DHT22;51131;52.298;13.686;2023-02-15T10:53:51;17.00;49.40
64705;DHT22;51131;52.298;13.686;2023-02-15T11:06:35;16.90;50.00
64705;DHT22;51131;52.298;13.686;2023-02-15T11:09:03;16.90;50.80
64705;DHT22;51131;52.298;13.686;2023-02-15T11:11:32;16.80;50.00
64705;DHT22;51131;52.298;13.686;2023-02-15T11:14:05;16.80;50.20
64705;DHT22;51131;52.298;13.686;2023-02-15T11:16:36;16.80;50.10
64705;DHT22;51131;52.298;13.686;2023-02-15T11:19:24;16.80;50.00
64705;DHT22;51131;52.298;13.686;2023-02-15T11:21:53;16.80;49.80
64705;DHT22;51131;52.298;13.686;2023-02-15T11:24:21;16.80;50.50
64705;DHT22;51131;52.298;13.686;2023-02-15T11:26:54;16.80;50.40
64705;DHT22;51131;52.298;13.686;2023-02-15T11:29:22;16.80;50.10
64705;DHT22;51131;52.298;13.686;2023-02-15T11:31:51;16.80;50.30
64705;DHT22;51131;52.298;13.686;2023-02-15T11:34:44;16.80;50.00
64705;DHT22;51131;52.298;13.686;2023-02-15T11:37:11;17.00;50.20
64705;DHT22;51131;52.298;13.686;2023-02-15T11:39:38;16.70;50.00
64705;DHT22;51131;52.298;13.686;2023-02-15T11:42:06;16.70;49.60
64705;DHT22;51131;52.298;13.686;2023-02-15T11:44:47;16.70;50.00
64705;DHT22;51131;52.298;13.686;2023-02-15T11:47:16;16.80;50.40
64705;DHT22;51131;52.298;13.686;2023-02-15T11:49:43;16.70;49.80
64705;DHT22;51131;52.298;13.686;2023-02-15T11:52:12;16.80;50.00
64705;DHT22;51131;52.298;13.686;2023-02-15T11:54:43;16.80;49.80
64705;DHT22;51131;52.298;13.686;2023-02-15T11:57:15;16.70;50.10
64705;DHT22;51131;52.298;13.686;2023-02-15T11:59:46;16.70;50.20
64705;DHT22;51131;52.298;13.686;2023-02-15T12:02:22;16.80;50.40
64705;DHT22;51131;52.298;13.686;2023-02-15T12:04:58;16.70;49.90
64705;DHT22;51131;52.298;13.686;2023-02-15T12:07:27;16.70;50.50
64705;DHT22;51131;52.298;13.686;2023-02-15T12:10:03;16.80;50.60
64705;DHT22;51131;52.298;13.686;2023-02-15T12:12:38;16.80;50.40
64705;DHT22;51131;52.298;13.686;2023-02-15T12:15:08;16.80;50.00
64705;DHT22;51131;52.298;13.686;2023-02-15T12:17:39;16.80;49.90
64705;DHT22;51131;52.298;13.686;2023-02-15T12:20:29;16.80;50.00
64705;DHT22;51131;52.298;13.686;2023-02-15T12:22:54;16.80;49.90
64705;DHT22;51131;52.298;13.686;2023-02-15T12:25:24;16.80;49.80
64705;DHT22;51131;52.298;13.686;2023-02-15T12:27:52;16.80;50.70
64705;DHT22;51131;52.298;13.686;2023-02-15T12:30:20;16.80;50.80
64705;DHT22;51131;52.298;13.686;2023-02-15T12:32:52;16.90;50.80
64705;DHT22;51131;52.298;13.686;2023-02-15T12:35:30;16.90;50.60
64705;DHT22;51131;52.298;13.686;2023-02-15T12:38:00;17.00;50.60
64705;DHT22;51131;52.298;13.686;2023-02-15T12:40:31;17.10;50.70
64705;DHT22;51131;52.298;13.686;2023-02-15T12:42:59;17.10;50.40
64705;DHT22;51131;52.298;13.686;2023-02-15T12:45:30;17.10;50.40
64705;DHT22;51131;52.298;13.686;2023-02-15T12:48:13;17.10;50.40
64705;DHT22;51131;52.298;13.686;2023-02-15T12:50:42;17.10;50.40
64705;DHT22;51131;52.298;13.686;2023-02-15T12:53:17;17.10;50.70
64705;DHT22;51131;52.298;13.686;2023-02-15T12:55:49;17.10;50.60
64705;DHT22;51131;52.298;13.686;2023-02-15T13:00:44;17.10;50.60
64705;DHT22;51131;52.298;13.686;2023-02-15T13:03:19;17.10;50.60
64705;DHT22;51131;52.298;13.686;2023-02-15T13:05:48;17.10;51.20
64705;DHT22;51131;52.298;13.686;2023-02-15T13:08:16;17.00;51.40
64705;DHT22;51131;52.298;13.686;2023-02-15T13:10:56;17.00;51.50
64705;DHT22;51131;52.298;13.686;2023-02-15T13:13:26;17.00;51.20
64705;DHT22;51131;52.298;13.686;2023-02-15T13:15:54;17.00;51.10
64705;DHT22;51131;52.298;13.686;2023-02-15T13:18:30;16.90;51.50
64705;DHT22;51131;52.298;13.686;2023-02-15T13:20:58;17.00;51.40
64705;DHT22;51131;52.298;13.686;2023-02-15T13:23:28;16.90;51.30
64705;DHT22;51131;52.298;13.686;2023-02-15T13:25:57;17.00;51.60
64705;DHT22;51131;52.298;13.686;2023-02-15T13:28:26;17.00;51.70
64705;DHT22;51131;52.298;13.686;2023-02-15T13:30:54;17.00;51.10
64705;DHT22;51131;52.298;13.686;2023-02-15T13:33:31;17.00;51.30
64705;DHT22;51131;52.298;13.686;2023-02-15T13:36:18;17.00;51.30
64705;DHT22;51131;52.298;13.686;2023-02-15T13:38:49;16.90;50.90
64705;DHT22;51131;52.298;13.686;2023-02-15T13:41:39;17.00;52.10
64705;DHT22;51131;52.298;13.686;2023-02-15T13:44:21;16.90;52.10
64705;DHT22;51131;52.298;13.686;2023-02-15T13:52:13;17.00;51.90
64705;DHT22;51131;52.298;13.686;2023-02-15T13:54:50;17.00;51.70
64705;DHT22;51131;52.298;13.686;2023-02-15T14:00:20;17.00;52.00
64705;DHT22;51131;52.298;13.686;2023-02-15T14:05:20;17.00;52.10
64705;DHT22;51131;52.298;13.686;2023-02-15T14:10:40;16.90;52.30
64705;DHT22;51131;52.298;13.686;2023-02-15T14:15:50;17.00;51.70
64705;DHT22;51131;52.298;13.686;2023-02-15T14:20:56;17.20;51.40
64705;DHT22;51131;52.298;13.686;2023-02-15T14:26:04;17.30;51.40
64705;DHT22;51131;52.298;13.686;2023-02-15T14:28:34;17.30;51.40
64705;DHT22;51131;52.298;13.686;2023-02-15T14:31:02;17.20;51.20
64705;DHT22;51131;52.298;13.686;2023-02-15T14:33:34;17.40;51.40
64705;DHT22;51131;52.298;13.686;2023-02-15T14:36:03;17.20;51.40
64705;DHT22;51131;52.298;13.686;2023-02-15T14:43:49;17.20;51.20
64705;DHT22;51131;52.298;13.686;2023-02-15T14:48:56;17.20;51.20
64705;DHT22;51131;52.298;13.686;2023-02-15T15:04:35;17.10;52.10
64705;DHT22;51131;52.298;13.686;2023-02-15T15:09:30;17.10;52.40
64705;DHT22;51131;52.298;13.686;2023-02-15T15:14:44;16.90;52.40
64705;DHT22;51131;52.298;13.686;2023-02-15T15:17:13;16.90;52.40
64705;DHT22;51131;52.298;13.686;2023-02-15T15:22:34;16.90;52.10
64705;DHT22;51131;52.298;13.686;2023-02-15T15:25:08;16.90;52.50
64705;DHT22;51131;52.298;13.686;2023-02-15T15:27:36;16.90;52.30
64705;DHT22;51131;52.298;13.686;2023-02-15T15:30:49;16.80;52.50
64705;DHT22;51131;52.298;13.686;2023-02-15T15:41:22;17.00;52.00
64705;DHT22;51131;52.298;13.686;2023-02-15T15:46:03;17.00;52.00
64705;DHT22;51131;52.298;13.686;2023-02-15T15:51:01;17.30;51.70
64705;DHT22;51131;52.298;13.686;2023-02-15T15:53:28;17.20;51.60
64705;DHT22;51131;52.298;13.686;2023-02-15T15:55:57;17.20;51.50
64705;DHT22;51131;52.298;13.686;2023-02-15T15:58:26;17.20;51.40
64705;DHT22;51131;52.298;13.686;2023-02-15T16:00:58;17.10;51.80
64705;DHT22;51131;52.298;13.686;2023-02-15T16:03:26;17.10;51.80
64705;DHT22;51131;52.298;13.686;2023-02-15T16:05:53;17.10;51.70
64705;DHT22;51131;52.298;13.686;2023-02-15T16:08:27;17.10;51.70
64705;DHT22;51131;52.298;13.686;2023-02-15T16:10:54;17.10;51.60
64705;DHT22;51131;52.298;13.686;2023-02-15T16:13:21;17.10;51.70
64705;DHT22;51131;52.298;13.686;2023-02-15T16:15:50;17.10;52.20
64705;DHT22;51131;52.298;13.686;2023-02-15T16:18:20;17.10;51.80
64705;DHT22;51131;52.298;13.686;2023-02-15T16:20:54;17.10;51.80
64705;DHT22;51131;52.298;13.686;2023-02-15T16:28:40;17.10;51.90
64705;DHT22;51131;52.298;13.686;2023-02-15T16:31:14;17.10;51.70
64705;DHT22;51131;52.298;13.686;2023-02-15T16:33:42;17.10;51.60
64705;DHT22;51131;52.298;13.686;2023-02-15T16:36:10;17.10;51.50
64705;DHT22;51131;52.298;13.686;2023-02-15T16:41:31;17.10;51.60
64705;DHT22;51131;52.298;13.686;2023-02-15T16:43:57;17.10;51.80
64705;DHT22;51131;52.298;13.686;2023-02-15T16:46:31;17.10;52.00
64705;DHT22;51131;52.298;13.686;2023-02-15T16:49:00;17.10;51.90
64705;DHT22;51131;52.298;13.686;2023-02-15T16:51:29;17.10;51.70
64705;DHT22;51131;52.298;13.686;2023-02-15T16:53:56;17.10;51.50
64705;DHT22;51131;52.298;13.686;2023-02-15T16:56:25;17.10;51.50
64705;DHT22;51131;52.298;13.686;2023-02-15T16:58:53;17.20;51.60
64705;DHT22;51131;52.298;13.686;2023-02-15T17:01:21;17.00;51.50
64705;DHT22;51131;52.298;13.686;2023-02-15T17:03:50;17.00;52.00
64705;DHT22;51131;52.298;13.686;2023-02-15T17:06:24;17.10;52.00
64705;DHT22;51131;52.298;13.686;2023-02-15T17:08:52;17.10;52.00
64705;DHT22;51131;52.298;13.686;2023-02-15T17:11:20;17.40;52.10
64705;DHT22;51131;52.298;13.686;2023-02-15T17:16:52;17.30;51.80
64705;DHT22;51131;52.298;13.686;2023-02-15T17:19:27;17.30;51.70
64705;DHT22;51131;52.298;13.686;2023-02-15T17:22:04;17.30;51.40
64705;DHT22;51131;52.298;13.686;2023-02-15T17:24:40;17.30;51.40
64705;DHT22;51131;52.298;13.686;2023-02-15T17:27:14;17.30;51.60
64705;DHT22;51131;52.298;13.686;2023-02-15T17:29:46;17.30;51.50
64705;DHT22;51131;52.298;13.686;2023-02-15T17:32:18;17.30;51.40
64705;DHT22;51131;52.298;13.686;2023-02-15T17:34:50;17.20;51.30
64705;DHT22;51131;52.298;13.686;2023-02-15T17:37:24;17.20;51.60
64705;DHT22;51131;52.298;13.686;2023-02-15T17:39:51;17.20;51.40
64705;DHT22;51131;52.298;13.686;2023-02-15T17:42:18;17.20;51.30
64705;DHT22;51131;52.298;13.686;2023-02-15T17:44:45;17.20;51.30
64705;DHT22;51131;52.298;13.686;2023-02-15T17:47:19;17.10;52.20
64705;DHT22;51131;52.298;13.686;2023-02-15T17:49:46;17.10;51.50
64705;DHT22;51131;52.298;13.686;2023-02-15T17:52:15;17.20;51.40
64705;DHT22;51131;52.298;13.686;2023-02-15T17:54:43;17.40;51.60
64705;DHT22;51131;52.298;13.686;2023-02-15T17:57:29;17.10;51.10
64705;DHT22;51131;52.298;13.686;2023-02-15T17:59:56;17.10;51.10
64705;DHT22;51131;52.298;13.686;2023-02-15T18:02:42;17.10;51.00
64705;DHT22;51131;52.298;13.686;2023-02-15T18:05:27;17.10;51.20
64705;DHT22;51131;52.298;13.686;2023-02-15T18:08:16;17.10;51.80
64705;DHT22;51131;52.298;13.686;2023-02-15T18:11:02;17.10;51.80
64705;DHT22;51131;52.298;13.686;2023-02-15T18:13:47;17.10;51.70
64705;DHT22;51131;52.298;13.686;2023-02-15T18:16:14;17.10;51.50
64705;DHT22;51131;52.298;13.686;2023-02-15T18:18:42;17.20;51.50